Estación Meteorológica Peña el Pijo (Robertgarden) [ 10/16/18 14:21:50 CEST ]

Fecha Hora Presion(HPa) Temp (°C) Humedad % Rocio (°C) Viento ( m/s) Direccion Lluvia 1Hora(mm) Lluvia 24H(mm) LLuvia Total(mm)
2018-Oct-11 01:01:18 1005.200 9.5 89 7.8       1.55 6.73
2018-Oct-11 02:01:30 1005.200 8.9 89 7.2       1.55 6.73
2018-Oct-11 03:03:15 1004.900 8.3 90 6.8       1.55 6.73
2018-Oct-11 04:01:50 1004.700 7.8 90 6.3       1.55 6.73
2018-Oct-11 05:01:45 1004.700 7.9 91 6.5       1.55 6.73
2018-Oct-11 06:01:33 1004.800 7.9 91 6.5       1.55 6.73
2018-Oct-11 07:01:26 1005.100 7.4 90 5.9       1.55 6.73
2018-Oct-11 08:01:19 1005.500 7.6 91 6.2       1.55 6.73
2018-Oct-11 09:01:37 1005.600 8.4 91 7.0     0.51 2.07 7.25
2018-Oct-11 10:01:31 1006.200 10.7 92 9.4       2.07 7.25
2018-Oct-11 11:01:14 1007.100 13.0 92 11.6       2.07 7.25
2018-Oct-11 12:01:34 1006.900 19.8 91 18.3       2.07 7.25
2018-Oct-11 13:01:40 1007.100 21.8 64 14.7       2.07 7.25
2018-Oct-11 14:01:49 1006.900 21.3 60 13.3       2.07 7.25
2018-Oct-11 15:01:57 1006.900 22.6 54 12.8       1.03 7.25
2018-Oct-11 16:01:54 1007.200 18.9 67 12.6     0.51 1.55 7.77
2018-Oct-11 17:01:55 1007.400 19.4 76 15.1       1.03 7.77
2018-Oct-11 18:01:55 1007.900 18.6 73 13.6       1.03 7.77
2018-Oct-11 19:01:51 1008.400 18.4 72 13.3       1.03 7.77
2018-Oct-11 20:01:55 1009.600 15.3 78 11.5       1.03 7.77
2018-Oct-11 21:02:01 1010.500 14.6 81 11.4       1.03 7.77
2018-Oct-11 22:01:47 1011.000 12.9 83 10.0       1.03 7.77
2018-Oct-11 23:02:05 1011.700 11.9 85 9.4       1.03 7.77

Temperatura Máxima:22°    Temperatura Mínima:
Presión Máxima:1011.700 Hpa    Presión Mínima:1004.700 Hpa


Volver